Time;durP1;ratioP1;P1;durP2;ratioP2;P2;SDS_P1;SDS_P2;PMS_P1;PMS_P2;Temp;Humidity;BMP_temperature;BMP_pressure;BME280_temperature;BME280_humidity;BME280_pressure;Samples;Min_cycle;Max_cycle;Signal;HPM_P1;HPM_P2
2023/02/14 00:01:31;;;;;;;29.00;7.83;;;;;;;;;;5072806;28;20016;-77
2023/02/14 00:03:59;;;;;;;20.87;6.07;;;;;;;;;;5072061;28;20440;-77
2023/02/14 00:06:24;;;;;;;16.97;5.23;;;;;;;;;;5072443;28;20021;-77
2023/02/14 00:08:52;;;;;;;17.63;5.77;;;;;;;;;;5070856;28;20021;-77
2023/02/14 00:11:18;;;;;;;16.43;6.50;;;;;;;;;;5070845;28;20028;-77
2023/02/14 00:15:20;;;;;;;13.07;4.80;;;;;;;;;;5071913;28;20035;-77
2023/02/14 00:16:28;;;;;;;23.07;5.33;;;;;;;;;;5072083;28;20029;-77
2023/02/14 00:19:02;;;;;;;11.37;5.47;;;;;;;;;;5071525;28;20027;-77
2023/02/14 00:21:28;;;;;;;11.17;4.30;;;;;;;;;;5070980;28;20039;-77
2023/02/14 00:23:53;;;;;;;22.00;6.37;;;;;;;;;;5068881;28;20025;-77
2023/02/14 00:26:18;;;;;;;10.23;4.67;;;;;;;;;;5070557;28;20038;-77
2023/02/14 00:28:43;;;;;;;18.77;5.03;;;;;;;;;;5071678;28;20032;-77
2023/02/14 00:31:09;;;;;;;15.37;5.43;;;;;;;;;;5071804;28;20380;-77
2023/02/14 00:33:34;;;;;;;23.37;6.73;;;;;;;;;;5070670;28;20052;-77
2023/02/14 00:36:01;;;;;;;16.50;5.57;;;;;;;;;;5071795;28;20391;-77
2023/02/14 00:38:26;;;;;;;12.60;5.03;;;;;;;;;;5071922;28;20028;-76
2023/02/14 00:40:51;;;;;;;12.73;4.87;;;;;;;;;;5070301;28;20364;-77
2023/02/14 00:43:16;;;;;;;13.60;5.40;;;;;;;;;;5071669;28;20024;-77
2023/02/14 00:45:42;;;;;;;12.97;5.43;;;;;;;;;;5070512;28;20383;-77
2023/02/14 00:48:07;;;;;;;16.73;4.80;;;;;;;;;;5071504;28;20452;-77
2023/02/14 00:50:32;;;;;;;15.67;5.03;;;;;;;;;;5069504;28;20472;-77
2023/02/14 00:52:57;;;;;;;12.70;4.30;;;;;;;;;;5071618;28;20479;-77
2023/02/14 00:55:22;;;;;;;14.80;4.77;;;;;;;;;;5070103;28;20422;-77
2023/02/14 00:57:47;;;;;;;11.07;4.47;;;;;;;;;;5069933;28;20025;-77
2023/02/14 01:00:13;;;;;;;13.03;5.13;;;;;;;;;;5071145;28;20096;-77
2023/02/14 01:02:38;;;;;;;10.10;4.67;;;;;;;;;;5071188;28;20023;-76
2023/02/14 01:05:04;;;;;;;13.90;4.57;;;;;;;;;;5068667;28;20412;-77
2023/02/14 01:07:29;;;;;;;14.00;4.80;;;;;;;;;;5070876;28;20028;-76
2023/02/14 01:09:54;;;;;;;10.10;4.10;;;;;;;;;;5070748;28;20436;-77
2023/02/14 01:12:19;;;;;;;15.10;5.00;;;;;;;;;;5071140;28;20020;-77
2023/02/14 01:14:44;;;;;;;12.70;5.27;;;;;;;;;;5070668;28;20104;-76
2023/02/14 01:17:10;;;;;;;10.00;4.17;;;;;;;;;;5068938;28;20645;-77
2023/02/14 01:19:35;;;;;;;14.73;4.93;;;;;;;;;;5070610;28;20013;-77
2023/02/14 01:22:00;;;;;;;12.63;4.50;;;;;;;;;;5070945;28;20035;-77
2023/02/14 01:24:26;;;;;;;11.33;4.13;;;;;;;;;;5069518;28;20032;-76
2023/02/14 01:26:51;;;;;;;10.50;4.53;;;;;;;;;;5069295;28;20419;-77
2023/02/14 01:29:16;;;;;;;11.13;4.87;;;;;;;;;;5069204;28;20032;-76
2023/02/14 01:31:41;;;;;;;11.07;4.73;;;;;;;;;;5070599;28;20024;-76
2023/02/14 01:34:06;;;;;;;10.57;4.30;;;;;;;;;;5069058;28;20016;-76
2023/02/14 01:36:34;;;;;;;11.60;4.77;;;;;;;;;;5068388;28;20020;-77
2023/02/14 01:39:01;;;;;;;11.20;4.50;;;;;;;;;;5068805;28;20074;-76
2023/02/14 01:41:27;;;;;;;10.07;3.93;;;;;;;;;;5069560;28;20012;-76
2023/02/14 01:43:55;;;;;;;13.47;4.10;;;;;;;;;;5070613;28;20096;-77
2023/02/14 01:46:20;;;;;;;11.00;4.00;;;;;;;;;;5069479;28;20578;-77
2023/02/14 01:48:46;;;;;;;11.80;3.73;;;;;;;;;;5069964;28;20020;-76
2023/02/14 01:51:11;;;;;;;10.93;4.20;;;;;;;;;;5070690;28;20020;-77
2023/02/14 01:53:37;;;;;;;11.77;3.43;;;;;;;;;;5070814;28;20035;-77
2023/02/14 01:56:05;;;;;;;12.10;4.00;;;;;;;;;;5070365;28;20017;-77
2023/02/14 01:58:33;;;;;;;7.80;3.63;;;;;;;;;;5070825;28;20082;-76
2023/02/14 02:00:59;;;;;;;12.07;4.53;;;;;;;;;;5070948;28;20107;-77
2023/02/14 02:03:32;;;;;;;10.13;4.30;;;;;;;;;;5074964;28;20103;-77
2023/02/14 02:06:13;;;;;;;9.43;3.57;;;;;;;;;;5073227;28;20020;-77
2023/02/14 02:08:47;;;;;;;12.03;4.60;;;;;;;;;;5074768;28;20439;-77
2023/02/14 02:11:12;;;;;;;13.07;4.37;;;;;;;;;;5074930;28;20016;-77
2023/02/14 02:13:37;;;;;;;8.23;3.73;;;;;;;;;;5073644;28;20483;-76
2023/02/14 02:16:21;;;;;;;9.30;4.23;;;;;;;;;;5074252;28;20030;-77
2023/02/14 02:19:04;;;;;;;13.60;5.30;;;;;;;;;;5060011;28;20436;-77
2023/02/14 02:21:39;;;;;;;12.43;4.33;;;;;;;;;;5074527;28;20530;-77
2023/02/14 02:24:04;;;;;;;12.10;4.40;;;;;;;;;;5074422;28;20023;-76
2023/02/14 02:26:41;;;;;;;14.77;4.77;;;;;;;;;;5070692;28;20016;-77
2023/02/14 02:29:14;;;;;;;15.50;5.80;;;;;;;;;;5069517;28;20066;-76
2023/02/14 02:31:52;;;;;;;14.40;5.47;;;;;;;;;;5073989;28;20387;-76
2023/02/14 02:34:36;;;;;;;8.30;3.67;;;;;;;;;;5074064;28;20021;-77
2023/02/14 02:37:19;;;;;;;15.03;5.27;;;;;;;;;;5072948;28;20020;-77
2023/02/14 02:39:45;;;;;;;10.53;4.27;;;;;;;;;;5073802;28;20024;-77
2023/02/14 02:42:30;;;;;;;13.53;4.93;;;;;;;;;;5074118;28;20070;-77
2023/02/14 02:45:09;;;;;;;13.97;4.10;;;;;;;;;;5042510;28;20467;-77
2023/02/14 02:47:34;;;;;;;9.67;4.20;;;;;;;;;;5072680;28;20104;-77
2023/02/14 02:53:02;;;;;;;;;;;;;;;;;;5062831;28;20131;-76
2023/02/14 02:59:01;;;;;;;13.23;4.40;;;;;;;;;;5028669;28;20404;-76
2023/02/14 03:01:28;;;;;;;13.40;5.30;;;;;;;;;;5060471;28;20036;-77
2023/02/14 03:06:42;;;;;;;12.90;4.53;;;;;;;;;;5062409;28;20081;-77
2023/02/14 03:09:11;;;;;;;13.63;5.53;;;;;;;;;;5071751;28;20024;-77
2023/02/14 03:11:39;;;;;;;11.47;5.60;;;;;;;;;;5071993;28;20020;-77
2023/02/14 03:14:10;;;;;;;11.50;4.77;;;;;;;;;;5072087;28;20028;-77
2023/02/14 03:16:40;;;;;;;15.57;5.67;;;;;;;;;;5071934;28;20031;-77
2023/02/14 03:22:20;;;;;;;11.57;5.30;;;;;;;;;;5073228;28;20043;-77
2023/02/14 03:24:56;;;;;;;21.23;5.60;;;;;;;;;;5070298;28;20028;-77
2023/02/14 03:27:29;;;;;;;14.57;6.00;;;;;;;;;;5059631;28;20032;-76
2023/02/14 03:29:55;;;;;;;11.07;4.83;;;;;;;;;;5072928;28;20025;-77
2023/02/14 03:32:27;;;;;;;9.30;5.03;;;;;;;;;;5071663;28;20028;-77
2023/02/14 03:34:56;;;;;;;11.43;5.25;;;;;;;;;;5071609;28;20344;-77
2023/02/14 03:37:27;;;;;;;13.53;5.17;;;;;;;;;;5071945;28;20028;-77
2023/02/14 03:39:58;;;;;;;13.80;5.53;;;;;;;;;;5071371;28;20026;-77
2023/02/14 03:42:28;;;;;;;16.80;5.60;;;;;;;;;;5072773;28;20340;-77
2023/02/14 03:44:54;;;;;;;15.93;5.77;;;;;;;;;;5072860;28;20039;-76
2023/02/14 03:47:21;;;;;;;11.47;5.00;;;;;;;;;;5071031;28;20195;-77
2023/02/14 03:49:52;;;;;;;10.37;5.00;;;;;;;;;;5069580;28;20051;-77
2023/02/14 03:52:18;;;;;;;17.70;5.93;;;;;;;;;;5070549;28;20024;-76
2023/02/14 03:54:45;;;;;;;12.97;5.50;;;;;;;;;;5072255;28;20036;-76
2023/02/14 03:57:14;;;;;;;15.67;5.97;;;;;;;;;;5069968;28;20049;-77
2023/02/14 03:59:40;;;;;;;12.63;4.90;;;;;;;;;;5071767;28;20020;-77
2023/02/14 04:02:10;;;;;;;9.50;3.93;;;;;;;;;;5072707;28;20386;-76
2023/02/14 04:04:38;;;;;;;13.33;5.17;;;;;;;;;;5072365;28;20028;-76
2023/02/14 04:07:07;;;;;;;15.43;5.93;;;;;;;;;;5071171;28;20020;-76
2023/02/14 04:09:32;;;;;;;11.27;4.83;;;;;;;;;;5072143;28;20013;-77
2023/02/14 04:11:57;;;;;;;13.63;5.67;;;;;;;;;;5071220;28;20500;-76
2023/02/14 04:14:24;;;;;;;10.33;4.83;;;;;;;;;;5071051;28;20031;-77
2023/02/14 04:19:33;;;;;;;11.67;5.47;;;;;;;;;;5071871;28;20597;-76
2023/02/14 04:21:58;;;;;;;12.50;4.97;;;;;;;;;;5072135;28;20028;-77
2023/02/14 04:24:23;;;;;;;14.33;5.47;;;;;;;;;;5070830;28;20021;-77
2023/02/14 04:27:08;;;;;;;10.17;4.53;;;;;;;;;;5072052;28;20028;-77
2023/02/14 04:29:34;;;;;;;13.63;6.73;;;;;;;;;;5071944;28;20341;-77
2023/02/14 04:31:59;;;;;;;13.97;5.63;;;;;;;;;;5071936;28;20039;-77
2023/02/14 04:34:24;;;;;;;13.90;5.73;;;;;;;;;;5071628;28;20017;-77
2023/02/14 04:36:49;;;;;;;13.57;5.57;;;;;;;;;;5069425;28;20054;-77
2023/02/14 04:39:15;;;;;;;10.63;4.73;;;;;;;;;;5071632;28;20020;-77
2023/02/14 04:41:40;;;;;;;10.10;4.70;;;;;;;;;;5070494;28;20143;-77
2023/02/14 04:44:05;;;;;;;15.40;5.27;;;;;;;;;;5072133;28;20024;-77
2023/02/14 04:46:30;;;;;;;13.37;5.53;;;;;;;;;;5070429;28;20113;-76
2023/02/14 04:48:55;;;;;;;11.47;4.80;;;;;;;;;;5070361;28;20025;-77
2023/02/14 04:51:20;;;;;;;13.93;6.00;;;;;;;;;;5071584;28;20033;-77
2023/02/14 04:53:46;;;;;;;13.93;5.50;;;;;;;;;;5071649;28;20099;-77
2023/02/14 04:56:11;;;;;;;19.03;6.17;;;;;;;;;;5070173;28;20021;-77
2023/02/14 04:58:36;;;;;;;12.50;5.07;;;;;;;;;;5071170;28;20032;-76
2023/02/14 05:01:01;;;;;;;15.70;6.07;;;;;;;;;;5070189;28;20368;-76
2023/02/14 05:03:26;;;;;;;15.53;5.57;;;;;;;;;;5071343;28;20664;-77
2023/02/14 05:05:52;;;;;;;15.53;6.03;;;;;;;;;;5071149;28;20055;-77
2023/02/14 05:08:17;;;;;;;14.53;5.80;;;;;;;;;;5071377;28;20331;-77
2023/02/14 05:10:42;;;;;;;18.17;7.73;;;;;;;;;;5071227;28;20029;-77
2023/02/14 05:13:07;;;;;;;14.33;5.93;;;;;;;;;;5070614;28;20028;-77
2023/02/14 05:15:32;;;;;;;16.00;5.83;;;;;;;;;;5071166;28;20123;-76
2023/02/14 05:18:00;;;;;;;13.80;5.07;;;;;;;;;;5070642;28;20108;-77
2023/02/14 05:20:26;;;;;;;11.60;5.13;;;;;;;;;;5070812;28;20639;-77
2023/02/14 05:22:51;;;;;;;11.47;5.17;;;;;;;;;;5071327;28;20108;-77
2023/02/14 05:25:17;;;;;;;15.73;6.10;;;;;;;;;;5070457;28;20074;-77
2023/02/14 05:27:42;;;;;;;13.93;5.13;;;;;;;;;;5069469;28;20127;-77
2023/02/14 05:30:08;;;;;;;14.63;5.50;;;;;;;;;;5070801;28;20043;-77
2023/02/14 05:32:33;;;;;;;14.23;5.80;;;;;;;;;;5070873;28;20100;-77
2023/02/14 05:34:59;;;;;;;12.97;5.80;;;;;;;;;;5069958;28;20107;-77
2023/02/14 05:37:24;;;;;;;12.13;5.47;;;;;;;;;;5069255;28;20024;-76
2023/02/14 05:39:49;;;;;;;14.77;5.70;;;;;;;;;;5070078;28;20111;-77
2023/02/14 05:42:14;;;;;;;15.37;6.03;;;;;;;;;;5071199;28;20512;-77
2023/02/14 05:44:40;;;;;;;13.70;5.50;;;;;;;;;;5065698;28;20017;-77
2023/02/14 05:47:05;;;;;;;16.00;5.43;;;;;;;;;;5060226;28;20020;-77
2023/02/14 05:49:30;;;;;;;11.93;4.50;;;;;;;;;;5069667;28;20021;-76
2023/02/14 05:51:55;;;;;;;19.13;5.83;;;;;;;;;;5070933;28;20035;-77
2023/02/14 05:54:20;;;;;;;13.90;5.77;;;;;;;;;;5070805;28;20076;-77
2023/02/14 05:56:45;;;;;;;13.37;5.90;;;;;;;;;;5071035;28;20474;-76
2023/02/14 05:59:13;;;;;;;13.00;5.23;;;;;;;;;;5070657;28;20024;-77
2023/02/14 06:01:38;;;;;;;18.57;5.80;;;;;;;;;;5068067;28;20377;-77
2023/02/14 06:04:03;;;;;;;16.87;5.97;;;;;;;;;;5069060;28;20021;-77
2023/02/14 06:06:28;;;;;;;12.57;4.97;;;;;;;;;;5070653;28;20104;-77
2023/02/14 06:08:53;;;;;;;12.10;4.93;;;;;;;;;;5070194;28;20094;-77
2023/02/14 06:11:19;;;;;;;20.77;6.97;;;;;;;;;;5070768;28;20021;-77
2023/02/14 06:13:44;;;;;;;13.27;4.87;;;;;;;;;;5068343;28;20180;-76
2023/02/14 06:16:09;;;;;;;15.27;5.67;;;;;;;;;;5070726;28;20468;-77
2023/02/14 06:18:34;;;;;;;11.87;5.47;;;;;;;;;;5069867;28;20021;-77
2023/02/14 06:20:59;;;;;;;15.13;5.93;;;;;;;;;;5068656;28;20458;-77
2023/02/14 06:23:25;;;;;;;16.73;5.63;;;;;;;;;;5070623;28;20368;-77
2023/02/14 06:25:50;;;;;;;12.20;5.07;;;;;;;;;;5069290;28;20017;-77
2023/02/14 06:28:15;;;;;;;13.47;4.70;;;;;;;;;;5069848;28;20111;-77
2023/02/14 06:30:40;;;;;;;11.67;5.57;;;;;;;;;;5069855;28;20020;-77
2023/02/14 06:33:07;;;;;;;15.13;6.40;;;;;;;;;;5070661;28;20076;-77
2023/02/14 06:35:32;;;;;;;11.33;4.47;;;;;;;;;;5068691;28;20063;-77
2023/02/14 06:37:57;;;;;;;11.43;4.70;;;;;;;;;;5068694;28;20051;-77
2023/02/14 06:40:23;;;;;;;14.77;5.87;;;;;;;;;;5070076;28;20021;-77
2023/02/14 06:42:48;;;;;;;15.67;6.27;;;;;;;;;;5070405;28;20016;-77
2023/02/14 06:45:13;;;;;;;17.20;5.93;;;;;;;;;;5061654;28;20056;-77
2023/02/14 06:47:38;;;;;;;13.90;5.83;;;;;;;;;;5068289;28;20403;-77
2023/02/14 06:50:04;;;;;;;14.73;6.27;;;;;;;;;;5073711;28;20431;-77
2023/02/14 06:52:30;;;;;;;13.97;5.70;;;;;;;;;;5073727;28;20032;-77
2023/02/14 06:54:55;;;;;;;12.40;5.73;;;;;;;;;;5073503;28;20024;-77
2023/02/14 06:57:20;;;;;;;16.27;6.03;;;;;;;;;;5072035;28;20629;-76
2023/02/14 06:59:45;;;;;;;13.57;5.53;;;;;;;;;;5073388;28;20035;-76
2023/02/14 07:02:10;;;;;;;14.47;5.80;;;;;;;;;;5069377;28;20099;-77
2023/02/14 07:04:36;;;;;;;17.73;6.20;;;;;;;;;;5071572;28;20472;-77
2023/02/14 07:07:01;;;;;;;11.33;4.90;;;;;;;;;;5072568;28;20016;-75
2023/02/14 07:09:26;;;;;;;11.57;5.33;;;;;;;;;;5071867;28;20012;-77
2023/02/14 07:11:51;;;;;;;16.13;6.27;;;;;;;;;;5072897;28;20083;-77
2023/02/14 07:14:17;;;;;;;13.87;5.93;;;;;;;;;;5070862;28;20035;-77
2023/02/14 07:16:42;;;;;;;14.13;5.70;;;;;;;;;;5072210;28;20031;-77
2023/02/14 07:19:07;;;;;;;13.73;5.90;;;;;;;;;;5073117;28;20039;-77
2023/02/14 07:21:32;;;;;;;13.57;5.00;;;;;;;;;;5072924;28;20443;-77
2023/02/14 07:23:57;;;;;;;15.13;6.30;;;;;;;;;;5073233;28;20047;-77
2023/02/14 07:26:23;;;;;;;14.33;6.10;;;;;;;;;;5072285;28;20024;-77
2023/02/14 07:28:51;;;;;;;14.87;5.30;;;;;;;;;;5069583;28;20115;-77
2023/02/14 07:31:17;;;;;;;16.90;6.60;;;;;;;;;;5073000;28;20040;-77
2023/02/14 07:33:42;;;;;;;15.07;6.70;;;;;;;;;;5071214;28;20339;-77
2023/02/14 07:36:08;;;;;;;16.70;6.87;;;;;;;;;;5071396;28;20096;-77
2023/02/14 07:38:33;;;;;;;19.07;6.23;;;;;;;;;;5070725;28;20097;-77
2023/02/14 07:40:58;;;;;;;14.97;6.20;;;;;;;;;;5071163;28;20043;-77
2023/02/14 07:43:24;;;;;;;17.63;7.50;;;;;;;;;;5068668;28;20020;-77
2023/02/14 07:45:49;;;;;;;23.60;6.60;;;;;;;;;;5071651;28;20488;-77
2023/02/14 07:48:14;;;;;;;17.57;6.73;;;;;;;;;;5073116;28;20009;-77
2023/02/14 07:50:39;;;;;;;13.87;6.20;;;;;;;;;;5073131;28;20063;-77
2023/02/14 07:53:07;;;;;;;15.47;5.87;;;;;;;;;;5071900;28;20163;-77
2023/02/14 07:55:32;;;;;;;11.20;5.37;;;;;;;;;;5070392;28;20032;-77
2023/02/14 07:57:57;;;;;;;19.13;6.73;;;;;;;;;;5066506;28;20085;-77
2023/02/14 08:00:22;;;;;;;16.03;5.57;;;;;;;;;;5071094;28;20020;-77
2023/02/14 08:02:48;;;;;;;18.23;5.73;;;;;;;;;;5071933;28;20440;-77
2023/02/14 08:05:14;;;;;;;13.10;5.73;;;;;;;;;;5070404;28;20027;-77
2023/02/14 08:07:39;;;;;;;14.07;5.37;;;;;;;;;;5070877;28;20115;-77
2023/02/14 08:10:05;;;;;;;14.43;5.73;;;;;;;;;;5071208;28;20383;-77
2023/02/14 08:17:58;;;;;;;13.60;5.37;;;;;;;;;;5070379;28;20059;-77
2023/02/14 08:20:23;;;;;;;16.63;5.77;;;;;;;;;;5072029;28;20466;-77
2023/02/14 08:22:48;;;;;;;16.90;6.30;;;;;;;;;;5072066;28;20046;-77
2023/02/14 08:25:13;;;;;;;17.10;5.50;;;;;;;;;;5071082;28;20048;-77
2023/02/14 08:27:38;;;;;;;16.43;6.57;;;;;;;;;;5070668;28;20174;-77
2023/02/14 08:30:04;;;;;;;13.37;5.73;;;;;;;;;;5070306;28;20340;-77
2023/02/14 08:32:29;;;;;;;13.67;6.27;;;;;;;;;;5068531;28;20691;-77
2023/02/14 08:34:54;;;;;;;13.47;5.73;;;;;;;;;;5069434;28;20020;-77
2023/02/14 08:37:19;;;;;;;11.80;4.73;;;;;;;;;;5071765;28;20440;-76
2023/02/14 08:39:45;;;;;;;15.70;5.50;;;;;;;;;;5068742;28;20104;-78
2023/02/14 08:42:10;;;;;;;20.77;5.87;;;;;;;;;;5072331;28;20009;-77
2023/02/14 08:44:36;;;;;;;14.70;5.80;;;;;;;;;;5069926;28;20123;-77
2023/02/14 08:47:01;;;;;;;13.77;5.90;;;;;;;;;;5069127;28;20024;-77
2023/02/14 08:49:26;;;;;;;17.00;6.67;;;;;;;;;;5070166;28;20463;-77
2023/02/14 08:51:53;;;;;;;14.57;6.13;;;;;;;;;;5070400;28;20840;-77
2023/02/14 08:54:18;;;;;;;15.73;5.90;;;;;;;;;;5068932;28;20024;-78
2023/02/14 08:56:43;;;;;;;13.23;5.60;;;;;;;;;;5069020;28;20020;-76
2023/02/14 08:59:09;;;;;;;13.93;5.70;;;;;;;;;;5064854;28;20036;-77
2023/02/14 09:01:35;;;;;;;16.83;5.17;;;;;;;;;;5064614;28;20193;-77
2023/02/14 09:04:01;;;;;;;19.77;6.23;;;;;;;;;;5062319;28;20108;-77
2023/02/14 09:06:26;;;;;;;13.40;5.47;;;;;;;;;;5067468;28;20443;-77
2023/02/14 09:08:53;;;;;;;10.97;5.37;;;;;;;;;;5069505;28;20370;-77
2023/02/14 09:11:23;;;;;;;15.43;5.83;;;;;;;;;;5067945;28;20027;-77
2023/02/14 09:13:49;;;;;;;13.20;5.50;;;;;;;;;;5067359;28;20017;-77
2023/02/14 09:16:16;;;;;;;14.50;5.97;;;;;;;;;;5068326;28;20139;-77
2023/02/14 09:18:41;;;;;;;14.03;5.63;;;;;;;;;;5068220;28;20035;-77
2023/02/14 09:21:07;;;;;;;13.17;5.73;;;;;;;;;;5069835;28;20024;-77
2023/02/14 09:23:33;;;;;;;18.10;7.30;;;;;;;;;;5071107;28;20020;-77
2023/02/14 09:25:59;;;;;;;15.30;6.53;;;;;;;;;;5070223;28;20460;-77
2023/02/14 09:28:24;;;;;;;21.83;7.20;;;;;;;;;;5069860;28;20490;-77
2023/02/14 09:30:49;;;;;;;12.87;5.10;;;;;;;;;;5069418;28;20013;-77
2023/02/14 09:33:14;;;;;;;12.13;5.40;;;;;;;;;;5071279;28;20096;-77
2023/02/14 09:35:40;;;;;;;15.02;5.75;;;;;;;;;;5070554;28;20101;-77
2023/02/14 09:38:17;;;;;;;15.57;5.60;;;;;;;;;;5068885;28;20050;-77
2023/02/14 09:40:43;;;;;;;20.70;7.82;;;;;;;;;;5069514;28;20024;-77
2023/02/14 09:43:29;;;;;;;17.07;6.60;;;;;;;;;;5071390;28;20446;-77
2023/02/14 09:45:56;;;;;;;15.70;7.37;;;;;;;;;;5057876;28;20021;-77
2023/02/14 09:48:25;;;;;;;21.87;7.07;;;;;;;;;;5069524;28;20182;-77
2023/02/14 09:50:53;;;;;;;12.23;5.27;;;;;;;;;;5068814;28;20474;-77
2023/02/14 09:53:25;;;;;;;15.60;5.67;;;;;;;;;;5057147;28;20027;-77
2023/02/14 09:55:54;;;;;;;18.23;6.80;;;;;;;;;;5068425;28;20047;-77
2023/02/14 09:58:28;;;;;;;11.90;4.68;;;;;;;;;;5069172;28;20099;-77
2023/02/14 10:01:01;;;;;;;19.83;7.03;;;;;;;;;;5068711;28;20099;-77
2023/02/14 10:03:44;;;;;;;15.50;6.00;;;;;;;;;;5068158;28;20017;-77
2023/02/14 10:06:25;;;;;;;17.98;6.63;;;;;;;;;;5069781;28;20036;-77
2023/02/14 10:09:00;;;;;;;14.70;6.13;;;;;;;;;;5068375;28;20024;-77
2023/02/14 10:11:26;;;;;;;15.88;6.85;;;;;;;;;;5068333;28;20166;-77
2023/02/14 10:13:58;;;;;;;23.55;7.53;;;;;;;;;;5068369;28;20108;-77
2023/02/14 10:16:31;;;;;;;18.98;7.80;;;;;;;;;;5069799;28;20472;-77
2023/02/14 10:19:01;;;;;;;17.17;5.75;;;;;;;;;;5065365;28;20070;-77
2023/02/14 10:21:50;;;;;;;19.83;6.97;;;;;;;;;;5071492;28;20154;-77
2023/02/14 10:24:26;;;;;;;16.08;6.97;;;;;;;;;;5076949;28;20044;-77
2023/02/14 10:26:56;;;;;;;19.35;7.10;;;;;;;;;;5071126;28;20099;-77
2023/02/14 10:29:22;;;;;;;20.48;7.78;;;;;;;;;;5069587;28;20081;-77
2023/02/14 10:31:54;;;;;;;21.63;7.85;;;;;;;;;;5074360;28;20467;-77
2023/02/14 10:34:20;;;;;;;;;;;;;;;;;;5070908;28;20036;-77
2023/02/14 10:37:03;;;;;;;19.90;7.07;;;;;;;;;;5074287;28;19916;-77
2023/02/14 10:39:38;;;;;;;19.48;7.80;;;;;;;;;;5072498;28;20046;-77
2023/02/14 10:42:03;;;;;;;18.83;7.68;;;;;;;;;;5073673;28;20045;-77
2023/02/14 10:44:37;;;;;;;21.02;7.40;;;;;;;;;;5070480;28;20052;-77
2023/02/14 10:47:09;;;;;;;22.08;7.35;;;;;;;;;;5069288;28;20031;-77
2023/02/14 10:49:40;;;;;;;19.05;7.38;;;;;;;;;;5072504;28;20494;-77
2023/02/14 10:52:26;;;;;;;22.57;7.60;;;;;;;;;;5074283;28;20394;-77
2023/02/14 10:54:55;;;;;;;16.83;6.75;;;;;;;;;;5071529;28;20387;-78
2023/02/14 10:57:27;;;;;;;19.63;6.80;;;;;;;;;;5073690;28;20028;-77
2023/02/14 10:59:58;;;;;;;21.75;8.50;;;;;;;;;;5071880;28;20039;-77
2023/02/14 11:02:26;;;;;;;17.58;7.47;;;;;;;;;;5067078;28;20033;-77
2023/02/14 11:04:51;;;;;;;15.32;6.25;;;;;;;;;;5058468;28;20372;-78
2023/02/14 11:07:18;;;;;;;15.90;7.18;;;;;;;;;;5072836;28;20032;-77
2023/02/14 11:09:43;;;;;;;22.50;7.50;;;;;;;;;;5072327;28;20404;-77
2023/02/14 11:12:08;;;;;;;22.77;8.15;;;;;;;;;;5073661;28;20132;-77
2023/02/14 11:14:35;;;;;;;29.58;9.52;;;;;;;;;;5071321;28;20145;-77
2023/02/14 11:17:20;;;;;;;21.70;8.57;;;;;;;;;;5073674;28;20048;-77
2023/02/14 11:19:55;;;;;;;24.88;9.23;;;;;;;;;;5069487;28;20493;-77
2023/02/14 11:22:33;;;;;;;21.13;7.68;;;;;;;;;;5056923;28;20387;-77
2023/02/14 11:25:06;;;;;;;26.02;10.63;;;;;;;;;;5071287;28;20036;-77
2023/02/14 11:27:31;;;;;;;18.55;7.63;;;;;;;;;;5073361;28;20074;-77
2023/02/14 11:29:57;;;;;;;21.90;9.15;;;;;;;;;;5071987;28;20067;-77
2023/02/14 11:32:23;;;;;;;28.48;8.63;;;;;;;;;;5071603;28;20027;-77
2023/02/14 11:34:51;;;;;;;27.35;7.80;;;;;;;;;;5073006;28;20051;-77
2023/02/14 11:37:35;;;;;;;19.27;7.35;;;;;;;;;;5071957;28;20147;-77
2023/02/14 11:40:02;;;;;;;18.45;7.50;;;;;;;;;;5072476;28;20367;-77
2023/02/14 11:42:41;;;;;;;16.05;5.78;;;;;;;;;;5073216;28;20710;-78
2023/02/14 11:45:07;;;;;;;17.45;7.68;;;;;;;;;;5068424;28;20044;-77
2023/02/14 11:47:33;;;;;;;20.20;7.93;;;;;;;;;;5067934;28;20404;-77
2023/02/14 11:50:00;;;;;;;26.38;7.80;;;;;;;;;;5071424;28;20111;-77
2023/02/14 11:52:28;;;;;;;18.23;5.68;;;;;;;;;;5070404;28;20032;-77
2023/02/14 11:54:54;;;;;;;18.10;7.75;;;;;;;;;;5072726;28;20020;-77
2023/02/14 11:57:21;;;;;;;22.17;8.13;;;;;;;;;;5071805;28;20054;-78
2023/02/14 11:59:50;;;;;;;19.58;7.68;;;;;;;;;;5072597;28;20056;-77
2023/02/14 12:02:18;;;;;;;23.60;8.73;;;;;;;;;;5071503;28;20021;-77
2023/02/14 12:04:45;;;;;;;23.58;9.30;;;;;;;;;;5072479;28;20469;-77
2023/02/14 12:07:13;;;;;;;22.85;7.78;;;;;;;;;;5070880;28;20095;-77
2023/02/14 12:09:41;;;;;;;23.92;9.35;;;;;;;;;;5070455;28;20028;-77
2023/02/14 12:12:18;;;;;;;25.30;9.75;;;;;;;;;;5071394;28;20021;-77
2023/02/14 12:14:43;;;;;;;22.05;8.43;;;;;;;;;;5072387;28;20119;-77
2023/02/14 12:17:12;;;;;;;14.00;5.47;;;;;;;;;;5071821;28;20029;-77
2023/02/14 12:19:52;;;;;;;16.15;6.35;;;;;;;;;;5070429;28;20107;-77
2023/02/14 12:22:26;;;;;;;17.98;5.15;;;;;;;;;;5069012;28;20047;-78
2023/02/14 12:25:03;;;;;;;14.25;5.85;;;;;;;;;;5071373;28;20056;-77
2023/02/14 12:27:31;;;;;;;17.45;5.03;;;;;;;;;;5071851;28;20060;-78
2023/02/14 12:29:59;;;;;;;11.10;5.05;;;;;;;;;;5069570;28;20071;-78
2023/02/14 12:32:28;;;;;;;8.63;4.15;;;;;;;;;;5071578;28;20471;-78
2023/02/14 12:35:00;;;;;;;21.80;8.10;;;;;;;;;;5072033;28;20063;-78
2023/02/14 12:37:26;;;;;;;17.73;6.80;;;;;;;;;;5070742;28;20562;-77
2023/02/14 12:40:06;;;;;;;24.17;7.70;;;;;;;;;;5071683;28;20108;-78
2023/02/14 12:42:40;;;;;;;22.65;7.07;;;;;;;;;;5070323;28;20077;-78
2023/02/14 12:45:24;;;;;;;15.63;5.80;;;;;;;;;;5071175;28;20375;-77
2023/02/14 12:47:49;;;;;;;15.35;5.90;;;;;;;;;;5070525;28;20024;-77
2023/02/14 12:50:23;;;;;;;22.85;7.40;;;;;;;;;;5071611;28;20412;-77
2023/02/14 12:52:53;;;;;;;26.58;7.53;;;;;;;;;;5070112;28;20070;-77
2023/02/14 12:55:20;;;;;;;15.50;6.25;;;;;;;;;;5070777;28;20174;-77
2023/02/14 12:57:52;;;;;;;14.90;5.40;;;;;;;;;;5071433;28;20420;-77
2023/02/14 13:00:36;;;;;;;14.77;4.95;;;;;;;;;;5069841;28;20024;-77
2023/02/14 13:03:18;;;;;;;19.50;5.35;;;;;;;;;;5069610;28;20032;-77
2023/02/14 13:05:56;;;;;;;19.38;7.82;;;;;;;;;;5071206;28;20027;-77
2023/02/14 13:08:44;;;;;;;13.50;5.57;;;;;;;;;;5066544;28;20036;-77
2023/02/14 13:11:12;;;;;;;19.42;7.18;;;;;;;;;;5041833;28;20487;-77
2023/02/14 13:13:46;;;;;;;19.65;6.78;;;;;;;;;;5071178;28;20089;-77
2023/02/14 13:16:26;;;;;;;18.52;6.25;;;;;;;;;;5071303;28;20127;-78
2023/02/14 13:18:56;;;;;;;24.80;6.93;;;;;;;;;;5069953;28;20520;-77
2023/02/14 13:21:23;;;;;;;13.70;4.93;;;;;;;;;;5071266;28;20403;-77
2023/02/14 13:23:53;;;;;;;15.32;5.47;;;;;;;;;;5070601;28;20033;-77
2023/02/14 13:26:25;;;;;;;13.38;5.13;;;;;;;;;;5069947;28;20028;-77
2023/02/14 13:29:00;;;;;;;18.10;6.88;;;;;;;;;;5070777;28;20021;-77
2023/02/14 13:31:25;;;;;;;15.50;6.32;;;;;;;;;;5071437;28;20386;-77
2023/02/14 13:33:55;;;;;;;15.70;5.72;;;;;;;;;;5070396;28;20016;-77
2023/02/14 13:36:21;;;;;;;19.55;6.90;;;;;;;;;;5068514;28;20028;-77
2023/02/14 13:38:51;;;;;;;15.48;5.82;;;;;;;;;;5070607;28;20024;-77
2023/02/14 13:41:17;;;;;;;14.57;4.63;;;;;;;;;;5069060;28;20016;-77
2023/02/14 13:43:47;;;;;;;21.92;7.05;;;;;;;;;;5070674;28;20031;-77
2023/02/14 13:46:14;;;;;;;22.25;7.65;;;;;;;;;;5068856;28;20763;-77
2023/02/14 13:48:39;;;;;;;20.30;6.90;;;;;;;;;;5069774;28;20183;-77
2023/02/14 13:51:08;;;;;;;21.35;6.85;;;;;;;;;;5070333;28;20112;-77
2023/02/14 13:53:33;;;;;;;22.70;7.55;;;;;;;;;;5069633;28;20064;-77
2023/02/14 13:55:59;;;;;;;18.73;6.57;;;;;;;;;;5069738;28;20071;-77
2023/02/14 13:58:25;;;;;;;17.15;6.25;;;;;;;;;;5069417;28;20021;-77
2023/02/14 14:00:51;;;;;;;16.00;6.03;;;;;;;;;;5069643;28;20388;-77
2023/02/14 14:03:16;;;;;;;19.08;7.38;;;;;;;;;;5069515;28;20024;-77
2023/02/14 14:05:42;;;;;;;24.70;6.50;;;;;;;;;;5070535;28;20432;-77
2023/02/14 14:08:19;;;;;;;23.63;7.18;;;;;;;;;;5070866;28;20024;-77
2023/02/14 14:11:10;;;;;;;26.83;6.80;;;;;;;;;;5070185;28;20466;-76
2023/02/14 14:13:39;;;;;;;22.88;7.03;;;;;;;;;;5067057;28;20044;-77
2023/02/14 14:16:22;;;;;;;19.13;6.97;;;;;;;;;;5070262;28;20021;-77
2023/02/14 14:18:58;;;;;;;21.00;6.70;;;;;;;;;;5069096;28;20456;-77
2023/02/14 14:21:31;;;;;;;18.88;6.03;;;;;;;;;;5070340;28;20375;-77
2023/02/14 14:24:15;;;;;;;28.67;8.32;;;;;;;;;;5068460;28;20095;-77
2023/02/14 14:26:47;;;;;;;21.98;7.35;;;;;;;;;;5068962;28;20031;-77
2023/02/14 14:29:31;;;;;;;22.33;7.50;;;;;;;;;;5069766;28;20107;-77
2023/02/14 14:31:56;;;;;;;19.35;6.28;;;;;;;;;;5070905;28;20016;-77
2023/02/14 14:34:23;;;;;;;26.25;6.68;;;;;;;;;;5069490;28;20400;-77
2023/02/14 14:36:49;;;;;;;17.33;6.43;;;;;;;;;;5070310;28;20024;-77
2023/02/14 14:39:25;;;;;;;16.63;5.97;;;;;;;;;;5069745;28;20486;-77
2023/02/14 14:41:50;;;;;;;21.05;5.82;;;;;;;;;;5070062;28;20081;-77
2023/02/14 14:44:16;;;;;;;13.05;5.03;;;;;;;;;;5068214;28;20380;-77
2023/02/14 14:46:41;;;;;;;14.40;5.13;;;;;;;;;;5058936;28;20090;-77
2023/02/14 14:49:09;;;;;;;21.13;7.07;;;;;;;;;;5069888;28;20123;-77
2023/02/14 14:51:35;;;;;;;18.48;6.32;;;;;;;;;;5068559;28;20029;-77
2023/02/14 14:54:03;;;;;;;12.50;4.95;;;;;;;;;;5069818;28;20047;-77
2023/02/14 14:56:31;;;;;;;21.98;5.47;;;;;;;;;;5069894;28;20402;-77
2023/02/14 14:58:56;;;;;;;16.35;5.35;;;;;;;;;;5068948;28;20112;-77